createdAt,value
2018-12-27T00:00:44.416Z,24.60
2018-12-27T00:03:25.944Z,25.37
2018-12-27T00:06:07.556Z,21.23
2018-12-27T00:08:49.058Z,24.37
2018-12-27T00:11:29.957Z,23.83
2018-12-27T00:14:11.444Z,22.47
2018-12-27T00:16:52.947Z,22.97
2018-12-27T00:19:33.557Z,22.00
2018-12-27T00:22:14.868Z,20.33
2018-12-27T00:24:56.470Z,22.50
2018-12-27T00:27:38.082Z,19.27
2018-12-27T00:30:19.388Z,22.80
2018-12-27T00:33:03.233Z,25.13
2018-12-27T00:35:43.425Z,25.90
2018-12-27T00:38:25.053Z,24.50
2018-12-27T00:41:05.727Z,21.37
2018-12-27T00:43:46.625Z,23.80
2018-12-27T00:46:27.509Z,23.67
2018-12-27T00:49:09.123Z,23.83
2018-12-27T00:51:50.572Z,27.57
2018-12-27T00:54:31.249Z,25.23
2018-12-27T00:57:12.606Z,22.47
2018-12-27T00:59:54.004Z,21.13
2018-12-27T01:02:35.345Z,58.77
2018-12-27T01:05:16.012Z,45.93
2018-12-27T01:07:56.768Z,41.70
2018-12-27T01:10:38.372Z,30.92
2018-12-27T01:13:19.171Z,40.75
2018-12-27T01:15:59.991Z,34.37
2018-12-27T01:18:41.608Z,40.17
2018-12-27T01:21:23.021Z,29.75
2018-12-27T01:24:03.810Z,27.33
2018-12-27T01:26:45.029Z,31.17
2018-12-27T01:29:26.297Z,44.97
2018-12-27T01:32:07.775Z,38.20
2018-12-27T01:34:49.454Z,35.00
2018-12-27T01:37:30.968Z,43.10
2018-12-27T01:40:12.405Z,45.93
2018-12-27T01:42:53.895Z,39.10
2018-12-27T01:45:35.242Z,30.53
2018-12-27T01:48:16.822Z,60.97
2018-12-27T01:50:58.169Z,29.77
2018-12-27T01:53:38.825Z,46.70
2018-12-27T01:56:20.325Z,42.85
2018-12-27T01:59:01.847Z,43.65
2018-12-27T02:01:42.696Z,31.48
2018-12-27T02:04:24.342Z,36.13
2018-12-27T02:07:05.812Z,20.03
2018-12-27T02:09:46.628Z,28.52
2018-12-27T02:12:27.329Z,26.77
2018-12-27T02:15:08.171Z,34.13
2018-12-27T02:17:49.624Z,29.82
2018-12-27T02:20:30.843Z,34.78
2018-12-27T02:23:11.541Z,24.98
2018-12-27T02:25:52.338Z,35.95
2018-12-27T02:28:33.659Z,37.67
2018-12-27T02:31:15.135Z,32.17
2018-12-27T02:33:55.954Z,39.18
2018-12-27T02:36:36.674Z,34.65
2018-12-27T02:39:18.102Z,30.13
2018-12-27T02:41:58.802Z,26.93
2018-12-27T02:44:40.436Z,25.20
2018-12-27T02:47:21.186Z,27.23
2018-12-27T02:50:01.921Z,27.55
2018-12-27T02:52:42.664Z,24.02
2018-12-27T02:55:23.614Z,33.10
2018-12-27T02:58:05.162Z,40.83
2018-12-27T03:00:46.717Z,28.95
2018-12-27T03:03:28.054Z,32.20
2018-12-27T03:06:09.617Z,36.42
2018-12-27T03:08:50.501Z,32.08
2018-12-27T03:11:31.917Z,38.80
2018-12-27T03:14:13.386Z,27.67
2018-12-27T03:16:54.062Z,26.30
2018-12-27T03:19:35.377Z,23.57
2018-12-27T03:22:16.793Z,23.77
2018-12-27T03:24:57.608Z,28.85
2018-12-27T03:27:39.107Z,28.83
2018-12-27T03:30:20.731Z,27.95
2018-12-27T03:33:01.442Z,39.67
2018-12-27T03:35:42.888Z,25.67
2018-12-27T03:38:24.563Z,29.50
2018-12-27T03:41:05.239Z,24.52
2018-12-27T03:43:46.635Z,26.77
2018-12-27T03:46:27.345Z,34.25
2018-12-27T03:49:08.154Z,24.70
2018-12-27T03:51:48.841Z,25.17
2018-12-27T03:54:29.673Z,25.23
2018-12-27T03:57:11.225Z,27.93
2018-12-27T03:59:52.749Z,26.83
2018-12-27T04:02:34.128Z,24.35
2018-12-27T04:05:15.005Z,27.95
2018-12-27T04:07:56.488Z,24.10
2018-12-27T04:10:37.985Z,23.85
2018-12-27T04:13:19.621Z,23.32
2018-12-27T04:16:00.513Z,23.57
2018-12-27T04:18:42.014Z,33.23
2018-12-27T04:21:22.778Z,33.75
2018-12-27T04:24:04.397Z,52.55
2018-12-27T04:26:45.866Z,57.62
2018-12-27T04:29:26.589Z,59.30
2018-12-27T04:32:07.176Z,38.73
2018-12-27T04:34:47.946Z,32.30
2018-12-27T04:37:28.867Z,32.33
2018-12-27T04:40:10.418Z,26.93
2018-12-27T04:42:51.793Z,23.47
2018-12-27T04:45:32.654Z,24.82
2018-12-27T04:48:13.481Z,23.67
2018-12-27T04:50:54.951Z,22.02
2018-12-27T04:53:36.374Z,26.30
2018-12-27T04:56:17.774Z,28.50
2018-12-27T04:58:59.233Z,20.05
2018-12-27T05:01:40.669Z,18.10
2018-12-27T05:04:22.224Z,18.10
2018-12-27T05:07:02.986Z,20.88
2018-12-27T05:09:44.290Z,33.75
2018-12-27T05:12:25.017Z,20.30
2018-12-27T05:15:05.767Z,26.70
2018-12-27T05:17:46.480Z,29.50
2018-12-27T05:20:27.201Z,24.25
2018-12-27T05:23:08.078Z,22.50
2018-12-27T05:25:49.572Z,34.60
2018-12-27T05:28:30.215Z,32.53
2018-12-27T05:31:11.846Z,34.85
2018-12-27T05:33:53.302Z,23.60
2018-12-27T05:36:34.764Z,22.50
2018-12-27T05:39:15.466Z,17.60
2018-12-27T05:41:56.189Z,18.57
2018-12-27T05:44:37.663Z,15.75
2018-12-27T05:47:18.449Z,16.07
2018-12-27T05:49:59.101Z,16.50
2018-12-27T05:52:39.841Z,17.45
2018-12-27T05:55:20.613Z,14.80
2018-12-27T05:58:02.201Z,16.07
2018-12-27T06:00:43.874Z,21.17
2018-12-27T06:03:25.440Z,17.23
2018-12-27T06:06:06.103Z,17.35
2018-12-27T06:08:47.253Z,17.20
2018-12-27T06:11:28.834Z,16.35
2018-12-27T06:14:10.506Z,18.40
2018-12-27T06:16:51.304Z,14.28
2018-12-27T06:19:32.109Z,16.62
2018-12-27T06:22:13.258Z,19.15
2018-12-27T06:24:54.213Z,18.40
2018-12-27T06:27:35.829Z,14.87
2018-12-27T06:30:17.257Z,15.45
2018-12-27T06:32:58.842Z,15.53
2018-12-27T06:35:40.445Z,14.45
2018-12-27T06:38:21.285Z,15.00
2018-12-27T06:41:02.040Z,14.35
2018-12-27T06:43:43.013Z,17.75
2018-12-27T06:46:24.463Z,18.92
2018-12-27T06:49:05.918Z,19.87
2018-12-27T06:51:47.480Z,15.95
2018-12-27T06:54:28.242Z,15.85
2018-12-27T06:57:09.371Z,16.82
2018-12-27T06:59:50.189Z,16.15
2018-12-27T07:02:30.857Z,15.85
2018-12-27T07:05:11.930Z,16.67
2018-12-27T07:07:53.259Z,16.20
2018-12-27T07:10:34.857Z,18.30
2018-12-27T07:13:15.598Z,14.35
2018-12-27T07:15:57.184Z,15.58
2018-12-27T07:18:38.069Z,16.05
2018-12-27T07:21:19.144Z,17.37
2018-12-27T07:24:00.865Z,22.05
2018-12-27T07:26:41.585Z,37.33
2018-12-27T07:29:23.087Z,42.13
2018-12-27T07:32:03.976Z,38.25
2018-12-27T07:34:45.588Z,24.63
2018-12-27T07:37:27.195Z,19.35
2018-12-27T07:40:08.625Z,28.10
2018-12-27T07:42:49.236Z,17.65
2018-12-27T07:45:29.975Z,18.62
2018-12-27T07:48:10.826Z,22.85
2018-12-27T07:50:51.667Z,19.23
2018-12-27T07:53:32.990Z,17.30
2018-12-27T07:56:13.771Z,17.40
2018-12-27T07:58:54.566Z,19.92
2018-12-27T08:01:36.055Z,22.58
2018-12-27T08:04:16.721Z,19.98
2018-12-27T08:06:57.490Z,19.42
2018-12-27T08:09:38.218Z,16.90
2018-12-27T08:12:18.824Z,15.70
2018-12-27T08:15:00.196Z,22.58
2018-12-27T08:17:41.770Z,15.68
2018-12-27T08:20:22.661Z,18.77
2018-12-27T08:23:04.067Z,18.57
2018-12-27T08:25:45.563Z,19.10
2018-12-27T08:28:26.564Z,18.05
2018-12-27T08:31:08.121Z,16.70
2018-12-27T08:33:48.785Z,17.70
2018-12-27T08:36:29.674Z,17.42
2018-12-27T08:39:11.153Z,16.77
2018-12-27T08:41:51.843Z,19.02
2018-12-27T08:44:33.259Z,16.05
2018-12-27T08:47:14.683Z,20.82
2018-12-27T08:49:56.276Z,17.67
2018-12-27T08:52:37.323Z,20.85
2018-12-27T08:55:18.929Z,16.50
2018-12-27T08:57:59.666Z,16.00
2018-12-27T09:00:40.811Z,16.75
2018-12-27T09:03:22.163Z,14.95
2018-12-27T09:06:03.662Z,17.42
2018-12-27T09:08:45.144Z,18.90
2018-12-27T09:11:26.562Z,16.20
2018-12-27T09:14:07.332Z,16.82
2018-12-27T09:16:48.857Z,18.17
2018-12-27T09:19:30.420Z,18.62
2018-12-27T09:22:11.153Z,17.30
2018-12-27T09:24:52.586Z,22.75
2018-12-27T09:27:33.293Z,16.32
2018-12-27T09:30:14.218Z,16.00
2018-12-27T09:32:55.005Z,21.37
2018-12-27T09:35:35.823Z,21.62
2018-12-27T09:38:16.624Z,18.90
2018-12-27T09:40:58.289Z,19.30
2018-12-27T09:43:39.716Z,28.70
2018-12-27T09:46:21.262Z,20.77
2018-12-27T09:49:02.798Z,21.85
2018-12-27T09:51:44.680Z,20.37
2018-12-27T09:54:25.559Z,24.23
2018-12-27T09:57:07.230Z,20.75
2018-12-27T09:59:48.194Z,20.72
2018-12-27T10:02:28.897Z,18.73
2018-12-27T10:05:09.609Z,20.52
2018-12-27T10:07:57.323Z,24.98
2018-12-27T10:10:32.669Z,22.37
2018-12-27T10:13:13.389Z,20.55
2018-12-27T10:15:54.091Z,20.70
2018-12-27T10:18:34.898Z,19.45
2018-12-27T10:21:16.562Z,20.25
2018-12-27T10:23:57.321Z,22.70
2018-12-27T10:26:38.935Z,16.20
2018-12-27T10:29:20.452Z,22.90
2018-12-27T10:32:01.318Z,19.10
2018-12-27T10:34:42.070Z,23.15
2018-12-27T10:37:23.543Z,20.32
2018-12-27T10:40:04.956Z,21.35
2018-12-27T10:42:46.644Z,21.00
2018-12-27T10:45:27.271Z,20.15
2018-12-27T10:48:08.793Z,19.10
2018-12-27T10:50:49.508Z,17.40
2018-12-27T10:53:31.114Z,21.63
2018-12-27T10:56:12.589Z,19.02
2018-12-27T10:58:53.856Z,16.40
2018-12-27T11:01:34.566Z,23.27
2018-12-27T11:04:16.019Z,19.60
2018-12-27T11:06:56.847Z,17.55
2018-12-27T11:09:37.558Z,20.55
2018-12-27T11:12:18.451Z,16.83
2018-12-27T11:14:59.729Z,21.77
2018-12-27T11:17:40.410Z,16.90
2018-12-27T11:20:21.301Z,20.05
2018-12-27T11:23:02.739Z,19.15
2018-12-27T11:25:43.591Z,19.20
2018-12-27T11:28:24.344Z,22.70
2018-12-27T11:31:05.756Z,23.27
2018-12-27T11:33:47.307Z,23.55
2018-12-27T11:36:28.865Z,22.83
2018-12-27T11:39:09.837Z,19.87
2018-12-27T11:41:51.403Z,20.57
2018-12-27T11:44:32.900Z,24.73
2018-12-27T11:47:14.355Z,19.17
2018-12-27T11:49:55.176Z,22.70
2018-12-27T11:52:36.746Z,24.57
2018-12-27T11:55:18.366Z,21.70
2018-12-27T11:57:59.042Z,25.03
2018-12-27T12:00:40.595Z,22.83
2018-12-27T12:03:22.118Z,21.70
2018-12-27T12:06:03.588Z,21.13
2018-12-27T12:08:44.575Z,21.68
2018-12-27T12:11:25.394Z,21.00
2018-12-27T12:14:07.025Z,18.03
2018-12-27T12:16:48.476Z,22.53
2018-12-27T12:19:29.105Z,22.77
2018-12-27T12:22:10.659Z,22.77
2018-12-27T12:24:52.163Z,22.30
2018-12-27T12:27:33.637Z,23.00
2018-12-27T12:30:15.229Z,25.30
2018-12-27T12:32:56.003Z,20.08
2018-12-27T12:35:37.508Z,22.77
2018-12-27T12:38:18.269Z,26.50
2018-12-27T12:40:59.049Z,25.03
2018-12-27T12:43:39.715Z,19.82
2018-12-27T12:46:21.323Z,26.00
2018-12-27T12:49:02.153Z,24.82
2018-12-27T12:51:43.713Z,20.07
2018-12-27T12:54:24.559Z,21.35
2018-12-27T12:57:05.261Z,26.20
2018-12-27T12:59:46.834Z,21.17
2018-12-27T13:02:28.365Z,21.07
2018-12-27T13:05:09.915Z,21.73
2018-12-27T13:07:50.610Z,19.43
2018-12-27T13:10:31.331Z,24.15
2018-12-27T13:13:12.666Z,21.50
2018-12-27T13:15:54.207Z,23.52
2018-12-27T13:18:34.990Z,24.63
2018-12-27T13:21:16.108Z,24.43
2018-12-27T13:23:56.833Z,23.25
2018-12-27T13:26:37.796Z,23.70
2018-12-27T13:29:18.562Z,23.53
2018-12-27T13:31:59.317Z,25.87
2018-12-27T13:34:40.706Z,20.08
2018-12-27T13:37:21.574Z,21.90
2018-12-27T13:40:02.287Z,24.53
2018-12-27T13:42:43.791Z,22.73
2018-12-27T13:45:25.167Z,24.03
2018-12-27T13:48:06.797Z,24.23
2018-12-27T13:50:47.473Z,25.13
2018-12-27T13:53:28.541Z,22.37
2018-12-27T13:56:09.906Z,23.73
2018-12-27T13:58:50.587Z,26.50
2018-12-27T14:01:31.374Z,22.10
2018-12-27T14:04:12.682Z,22.90
2018-12-27T14:06:54.326Z,21.10
2018-12-27T14:09:36.099Z,23.07
2018-12-27T14:12:17.499Z,20.90
2018-12-27T14:14:59.016Z,22.10
2018-12-27T14:17:40.068Z,19.67
2018-12-27T14:20:20.817Z,18.20
2018-12-27T14:23:01.648Z,20.20
2018-12-27T14:25:42.721Z,17.63
2018-12-27T14:28:23.770Z,20.23
2018-12-27T14:31:05.271Z,18.52
2018-12-27T14:33:46.905Z,22.93
2018-12-27T14:36:28.875Z,21.20
2018-12-27T14:39:10.197Z,20.72
2018-12-27T14:41:51.336Z,21.12
2018-12-27T14:44:32.982Z,21.20
2018-12-27T14:47:14.535Z,24.10
2018-12-27T14:49:56.144Z,18.80
2018-12-27T14:52:37.691Z,27.48
2018-12-27T14:55:19.334Z,23.50
2018-12-27T14:58:00.850Z,19.63
2018-12-27T15:00:42.533Z,19.33
2018-12-27T15:03:24.156Z,20.50
2018-12-27T15:06:05.403Z,17.75
2018-12-27T15:08:46.886Z,19.70
2018-12-27T15:11:28.534Z,22.67
2018-12-27T15:14:10.116Z,19.73
2018-12-27T15:16:51.723Z,18.62
2018-12-27T15:19:33.136Z,16.80
2018-12-27T15:22:14.406Z,18.32
2018-12-27T15:24:56.013Z,20.30
2018-12-27T15:27:36.817Z,19.10
2018-12-27T15:30:17.589Z,18.32
2018-12-27T15:32:58.485Z,19.73
2018-12-27T15:35:39.359Z,17.42
2018-12-27T15:38:20.377Z,19.52
2018-12-27T15:41:01.642Z,23.67
2018-12-27T15:43:43.121Z,25.20
2018-12-27T15:46:24.682Z,21.93
2018-12-27T15:49:05.996Z,22.93
2018-12-27T15:51:46.784Z,21.10
2018-12-27T15:54:28.276Z,19.80
2018-12-27T15:57:09.922Z,19.70
2018-12-27T15:59:50.825Z,16.97
2018-12-27T16:02:32.161Z,22.03
2018-12-27T16:05:13.802Z,17.70
2018-12-27T16:07:55.295Z,20.40
2018-12-27T16:10:36.798Z,21.50
2018-12-27T16:13:18.255Z,28.98
2018-12-27T16:15:59.491Z,23.75
2018-12-27T16:18:40.947Z,26.00
2018-12-27T16:21:21.748Z,27.85
2018-12-27T16:24:03.140Z,22.32
2018-12-27T16:26:43.927Z,20.50
2018-12-27T16:29:25.549Z,22.00
2018-12-27T16:32:06.968Z,22.42
2018-12-27T16:34:48.535Z,21.10
2018-12-27T16:37:29.349Z,27.05
2018-12-27T16:40:10.795Z,24.23
2018-12-27T16:42:52.430Z,29.57
2018-12-27T16:45:34.097Z,35.73
2018-12-27T16:48:14.764Z,26.47
2018-12-27T16:50:56.285Z,25.40
2018-12-27T16:53:37.761Z,29.75
2018-12-27T16:56:18.510Z,22.17
2018-12-27T16:58:59.356Z,26.87
2018-12-27T17:01:40.143Z,24.95
2018-12-27T17:04:21.738Z,23.62
2018-12-27T17:07:02.506Z,23.57
2018-12-27T17:09:43.861Z,29.37
2018-12-27T17:12:25.228Z,24.87
2018-12-27T17:15:06.069Z,25.32
2018-12-27T17:17:47.530Z,27.42
2018-12-27T17:20:28.897Z,28.30
2018-12-27T17:23:09.644Z,32.48
2018-12-27T17:25:50.972Z,27.58
2018-12-27T17:28:31.801Z,39.03
2018-12-27T17:31:12.401Z,32.60
2018-12-27T17:33:53.295Z,34.70
2018-12-27T17:36:34.703Z,32.63
2018-12-27T17:39:16.023Z,28.05
2018-12-27T17:41:57.438Z,48.10
2018-12-27T17:44:38.353Z,39.17
2018-12-27T17:47:19.177Z,45.33
2018-12-27T17:50:00.201Z,51.92
2018-12-27T17:52:41.662Z,38.40
2018-12-27T17:55:22.405Z,37.28
2018-12-27T17:58:03.857Z,28.80
2018-12-27T18:00:45.458Z,26.60
2018-12-27T18:03:26.308Z,23.47
2018-12-27T18:06:07.734Z,24.33
2018-12-27T18:08:48.525Z,36.00
2018-12-27T18:11:29.964Z,27.82
2018-12-27T18:14:10.815Z,41.58
2018-12-27T18:16:51.741Z,53.50
2018-12-27T18:19:32.476Z,44.00
2018-12-27T18:22:13.610Z,39.50
2018-12-27T18:24:55.197Z,36.48
2018-12-27T18:27:36.790Z,34.88
2018-12-27T18:30:18.150Z,32.33
2018-12-27T18:32:59.319Z,43.00
2018-12-27T18:35:40.465Z,28.70
2018-12-27T18:38:21.239Z,34.65
2018-12-27T18:41:02.867Z,34.80
2018-12-27T18:43:44.177Z,32.65
2018-12-27T18:46:24.935Z,30.05
2018-12-27T18:49:05.662Z,29.18
2018-12-27T18:51:47.234Z,28.83
2018-12-27T18:54:28.672Z,34.95
2018-12-27T18:57:09.364Z,36.60
2018-12-27T18:59:50.206Z,29.87
2018-12-27T19:02:31.177Z,34.08
2018-12-27T19:05:11.992Z,37.83
2018-12-27T19:07:53.548Z,37.88
2018-12-27T19:10:34.316Z,34.08
2018-12-27T19:13:15.023Z,39.33
2018-12-27T19:15:55.695Z,34.40
2018-12-27T19:18:36.533Z,35.10
2018-12-27T19:21:17.910Z,32.65
2018-12-27T19:23:59.459Z,31.70
2018-12-27T19:26:40.853Z,30.43
2018-12-27T19:29:22.378Z,28.55
2018-12-27T19:32:04.008Z,30.30
2018-12-27T19:34:45.401Z,26.68
2018-12-27T19:37:26.796Z,26.10
2018-12-27T19:40:08.206Z,28.67
2018-12-27T19:42:49.756Z,29.55
2018-12-27T19:45:31.116Z,30.35
2018-12-27T19:48:12.457Z,28.92
2018-12-27T19:50:54.574Z,27.02
2018-12-27T19:53:35.262Z,27.70
2018-12-27T19:56:15.986Z,25.30
2018-12-27T19:58:56.733Z,29.90
2018-12-27T20:01:37.877Z,29.67
2018-12-27T20:04:18.576Z,25.20
2018-12-27T20:06:59.623Z,28.73
2018-12-27T20:09:40.625Z,27.15
2018-12-27T20:12:21.371Z,26.82
2018-12-27T20:15:02.439Z,30.82
2018-12-27T20:17:43.141Z,34.78
2018-12-27T20:20:23.834Z,27.07
2018-12-27T20:23:05.663Z,28.87
2018-12-27T20:25:47.177Z,30.35
2018-12-27T20:28:28.699Z,29.07
2018-12-27T20:31:10.242Z,30.57
2018-12-27T20:33:51.088Z,32.08
2018-12-27T20:36:32.649Z,27.48
2018-12-27T20:39:13.344Z,26.25
2018-12-27T20:41:54.910Z,27.07
2018-12-27T20:44:35.752Z,29.12
2018-12-27T20:47:16.511Z,27.07
2018-12-27T20:49:57.923Z,27.58
2018-12-27T20:52:38.599Z,26.60
2018-12-27T20:55:19.859Z,29.05
2018-12-27T20:58:01.193Z,30.10
2018-12-27T21:00:42.101Z,29.40
2018-12-27T21:03:24.279Z,29.52
2018-12-27T21:06:05.277Z,33.58
2018-12-27T21:08:46.801Z,44.25
2018-12-27T21:11:28.280Z,35.95
2018-12-27T21:14:09.773Z,31.33
2018-12-27T21:16:51.320Z,31.97
2018-12-27T21:19:31.988Z,23.57
2018-12-27T21:22:13.469Z,27.77
2018-12-27T21:24:54.162Z,29.52
2018-12-27T21:27:35.029Z,25.92
2018-12-27T21:30:16.608Z,31.35
2018-12-27T21:32:57.600Z,29.12
2018-12-27T21:35:39.222Z,30.97
2018-12-27T21:38:21.531Z,32.88
2018-12-27T21:41:02.521Z,29.18
2018-12-27T21:43:43.174Z,36.45
2018-12-27T21:46:24.581Z,31.68
2018-12-27T21:49:05.977Z,36.28
2018-12-27T21:51:47.229Z,34.75
2018-12-27T21:54:28.133Z,37.75
2018-12-27T21:57:08.998Z,36.58
2018-12-27T21:59:50.335Z,40.35
2018-12-27T22:02:31.092Z,34.70
2018-12-27T22:05:12.353Z,41.92
2018-12-27T22:07:53.712Z,44.18
2018-12-27T22:10:35.188Z,38.60
2018-12-27T22:13:16.850Z,44.55
2018-12-27T22:15:58.328Z,44.73
2018-12-27T22:18:39.926Z,54.55
2018-12-27T22:21:21.282Z,51.00
2018-12-27T22:24:01.974Z,46.23
2018-12-27T22:26:42.751Z,43.83
2018-12-27T22:29:23.736Z,48.98
2018-12-27T22:32:04.627Z,48.40
2018-12-27T22:34:46.061Z,48.00
2018-12-27T22:37:27.494Z,52.35
2018-12-27T22:40:09.022Z,50.75
2018-12-27T22:42:50.405Z,52.20
2018-12-27T22:45:31.795Z,53.45
2018-12-27T22:48:13.461Z,53.98
2018-12-27T22:50:54.177Z,54.20
2018-12-27T22:53:34.894Z,49.53
2018-12-27T22:56:15.570Z,50.50
2018-12-27T22:58:56.386Z,45.50
2018-12-27T23:01:37.878Z,49.27
2018-12-27T23:04:18.710Z,49.77
2018-12-27T23:07:00.006Z,46.63
2018-12-27T23:09:41.610Z,48.65
2018-12-27T23:12:23.199Z,50.95
2018-12-27T23:15:04.675Z,49.63
2018-12-27T23:17:45.489Z,48.90
2018-12-27T23:20:27.025Z,51.85
2018-12-27T23:23:08.613Z,44.80
2018-12-27T23:25:49.991Z,47.67
2018-12-27T23:28:31.500Z,51.20
2018-12-27T23:31:12.325Z,51.20
2018-12-27T23:33:53.790Z,40.52
2018-12-27T23:36:35.298Z,48.48
2018-12-27T23:39:16.177Z,46.53
2018-12-27T23:41:57.734Z,42.62
2018-12-27T23:44:38.454Z,44.03
2018-12-27T23:47:19.140Z,47.27
2018-12-27T23:50:00.800Z,39.92
2018-12-27T23:52:41.609Z,45.67
2018-12-27T23:55:22.593Z,45.40
2018-12-27T23:58:03.932Z,40.17
